Time;durP1;ratioP1;P1;durP2;ratioP2;P2;SDS_P1;SDS_P2;PMS_P1;PMS_P2;Temp;Humidity;BMP_temperature;BMP_pressure;BME280_temperature;BME280_humidity;BME280_pressure;Samples;Min_cycle;Max_cycle;Signal;HPM_P1;HPM_P2
2022/08/16 00:00:25;;;;;;;17.63;14.27;;;23.00;69.60;;;;;;4955374;28;20043;-75
2022/08/16 00:02:53;;;;;;;18.33;13.77;;;23.00;70.00;;;;;;4955485;28;20065;-75
2022/08/16 00:05:22;;;;;;;17.80;14.65;;;23.00;70.40;;;;;;4956054;28;20051;-75
2022/08/16 00:07:48;;;;;;;16.42;14.23;;;23.00;70.30;;;;;;4955742;28;20047;-75
2022/08/16 00:10:18;;;;;;;17.17;14.57;;;23.00;70.20;;;;;;4955062;28;20051;-75
2022/08/16 00:12:46;;;;;;;16.85;15.00;;;23.00;70.10;;;;;;4972896;28;20082;-75
2022/08/16 00:15:17;;;;;;;17.92;15.10;;;23.00;70.00;;;;;;4972705;28;20077;-75
2022/08/16 00:17:44;;;;;;;17.33;14.73;;;23.00;70.20;;;;;;4955515;28;20102;-75
2022/08/16 00:20:12;;;;;;;18.02;15.70;;;23.00;70.60;;;;;;4955082;28;20106;-75
2022/08/16 00:22:41;;;;;;;18.40;15.63;;;22.90;70.40;;;;;;4955224;28;20047;-75
2022/08/16 00:25:12;;;;;;;17.50;14.85;;;22.90;70.40;;;;;;4972776;28;20062;-75
2022/08/16 00:27:40;;;;;;;17.75;14.48;;;22.90;70.30;;;;;;4970581;28;20058;-75
2022/08/16 00:30:10;;;;;;;17.85;15.68;;;22.90;70.00;;;;;;4939059;28;20079;-75
2022/08/16 00:32:40;;;;;;;18.30;16.27;;;22.90;70.00;;;;;;4955126;28;20043;-75
2022/08/16 00:35:08;;;;;;;17.93;16.03;;;22.90;70.50;;;;;;4955281;28;20576;-75
2022/08/16 00:37:35;;;;;;;19.95;15.10;;;22.80;70.40;;;;;;4939157;28;20203;-75
2022/08/16 00:40:02;;;;;;;18.05;15.75;;;22.80;70.60;;;;;;4938960;28;20506;-75
2022/08/16 00:42:31;;;;;;;17.90;15.02;;;22.80;70.60;;;;;;4955051;28;20043;-75
2022/08/16 00:45:03;;;;;;;19.73;15.55;;;22.80;70.90;;;;;;4954560;28;20058;-75
2022/08/16 00:47:31;;;;;;;18.43;14.87;;;22.80;71.10;;;;;;4955158;28;20050;-75
2022/08/16 00:49:58;;;;;;;18.67;15.02;;;22.80;71.30;;;;;;4954661;28;20053;-75
2022/08/16 00:52:25;;;;;;;17.48;14.98;;;22.80;71.10;;;;;;4972187;28;20061;-75
2022/08/16 00:54:52;;;;;;;16.80;15.00;;;22.80;71.60;;;;;;4954664;28;20134;-75
2022/08/16 00:57:19;;;;;;;17.48;14.95;;;22.80;71.40;;;;;;4972098;28;20553;-75
2022/08/16 00:59:46;;;;;;;16.30;14.30;;;22.70;71.20;;;;;;4954226;28;20170;-75
2022/08/16 01:02:15;;;;;;;16.52;14.70;;;22.80;71.60;;;;;;4952138;28;20075;-75
2022/08/16 01:04:42;;;;;;;16.42;14.02;;;22.70;71.80;;;;;;4972112;28;20145;-75
2022/08/16 01:07:09;;;;;;;17.65;14.00;;;22.70;71.70;;;;;;4971080;28;20154;-75
2022/08/16 01:09:39;;;;;;;17.08;14.20;;;22.70;71.60;;;;;;4972304;28;21090;-75
2022/08/16 01:12:09;;;;;;;18.03;14.40;;;22.70;71.20;;;;;;4954668;28;20047;-75
2022/08/16 01:14:42;;;;;;;19.80;15.25;;;22.70;71.10;;;;;;4954866;28;20077;-75
2022/08/16 01:17:11;;;;;;;19.42;14.95;;;22.70;71.00;;;;;;4939076;28;20122;-75
2022/08/16 01:19:43;;;;;;;18.88;15.98;;;22.70;71.00;;;;;;4954440;28;20110;-75
2022/08/16 01:22:18;;;;;;;19.60;15.70;;;22.70;71.00;;;;;;4972027;28;20083;-75
2022/08/16 01:24:50;;;;;;;18.77;15.03;;;22.60;71.10;;;;;;4972018;28;20126;-75
2022/08/16 01:27:20;;;;;;;17.65;15.68;;;22.60;71.00;;;;;;4938243;28;20048;-75
2022/08/16 01:29:51;;;;;;;18.60;16.17;;;22.60;71.50;;;;;;4938245;28;20134;-75
2022/08/16 01:32:17;;;;;;;19.38;15.43;;;22.60;71.70;;;;;;4954511;28;20868;-75
2022/08/16 01:34:45;;;;;;;19.00;15.60;;;22.60;71.70;;;;;;4971880;28;20051;-75
2022/08/16 01:37:14;;;;;;;19.67;15.93;;;22.60;71.90;;;;;;4943292;28;20119;-75
2022/08/16 01:39:42;;;;;;;21.45;15.45;;;22.60;72.00;;;;;;4934898;28;20048;-75
2022/08/16 01:42:11;;;;;;;18.63;14.50;;;22.50;71.70;;;;;;4919068;28;20104;-75
2022/08/16 01:44:39;;;;;;;20.60;16.50;;;22.60;71.70;;;;;;4919384;28;20060;-75
2022/08/16 01:47:07;;;;;;;21.25;15.70;;;22.50;71.70;;;;;;4934932;28;20063;-75
2022/08/16 01:49:36;;;;;;;22.27;15.67;;;22.50;71.50;;;;;;4934799;28;20087;-75
2022/08/16 01:52:07;;;;;;;20.02;15.63;;;22.50;71.30;;;;;;4934123;28;20167;-75
2022/08/16 01:55:00;;;;;;;19.25;15.32;;;22.50;71.10;;;;;;4920928;28;20067;-75
2022/08/16 01:57:29;;;;;;;22.60;16.23;;;22.50;71.00;;;;;;4934762;28;20107;-75
2022/08/16 01:59:56;;;;;;;22.08;16.00;;;22.50;71.00;;;;;;4934178;28;20051;-75
2022/08/16 02:02:24;;;;;;;18.77;15.77;;;22.50;70.90;;;;;;4934890;28;20052;-75
2022/08/16 02:04:51;;;;;;;21.30;15.65;;;22.50;70.90;;;;;;4950762;28;20557;-75
2022/08/16 02:07:21;;;;;;;21.10;16.98;;;22.50;71.20;;;;;;4919227;28;20051;-75
2022/08/16 02:09:48;;;;;;;20.50;16.95;;;22.40;71.30;;;;;;4918593;28;20434;-75
2022/08/16 02:12:16;;;;;;;19.67;16.45;;;22.40;71.60;;;;;;4950717;28;20209;-75
2022/08/16 02:14:44;;;;;;;23.17;16.00;;;22.30;71.80;;;;;;4918609;28;20098;-74
2022/08/16 02:17:12;;;;;;;17.88;14.10;;;22.30;71.70;;;;;;4934630;28;20043;-75
2022/08/16 02:19:42;;;;;;;18.60;14.25;;;22.30;71.20;;;;;;4918453;28;20570;-75
2022/08/16 02:22:16;;;;;;;21.17;15.25;;;22.30;71.00;;;;;;4919192;28;20051;-74
2022/08/16 02:24:43;;;;;;;19.77;15.25;;;22.20;70.80;;;;;;4952020;28;20467;-75
2022/08/16 02:27:10;;;;;;;18.70;14.93;;;22.20;70.90;;;;;;4918890;28;20048;-75
2022/08/16 02:29:38;;;;;;;18.65;15.52;;;22.20;70.90;;;;;;4917973;28;20099;-75
2022/08/16 02:32:07;;;;;;;20.63;15.95;;;22.20;71.10;;;;;;4934475;28;20165;-74
2022/08/16 02:34:34;;;;;;;21.60;15.85;;;22.20;71.20;;;;;;4934271;28;20059;-75
2022/08/16 02:37:01;;;;;;;19.38;16.35;;;22.10;71.30;;;;;;4921761;28;20676;-75
2022/08/16 02:39:29;;;;;;;18.80;15.33;;;22.10;71.20;;;;;;4921282;28;20056;-75
2022/08/16 02:41:56;;;;;;;20.75;15.40;;;22.10;71.10;;;;;;4953527;28;20095;-75
2022/08/16 02:44:24;;;;;;;20.13;15.43;;;22.10;70.90;;;;;;4953561;28;20074;-75
2022/08/16 02:46:52;;;;;;;19.88;15.98;;;22.10;70.70;;;;;;4949959;28;20098;-75
2022/08/16 02:49:20;;;;;;;20.38;16.30;;;22.10;70.50;;;;;;4956762;28;20063;-75
2022/08/16 02:51:48;;;;;;;19.97;15.20;;;22.10;70.60;;;;;;4956214;28;20487;-75
2022/08/16 02:54:15;;;;;;;19.77;15.73;;;22.10;70.60;;;;;;4956837;28;20095;-75
2022/08/16 02:56:43;;;;;;;21.75;16.40;;;22.10;70.70;;;;;;4940374;28;20052;-75
2022/08/16 02:59:11;;;;;;;20.55;16.42;;;22.10;70.70;;;;;;4973685;28;20142;-75
2022/08/16 03:01:40;;;;;;;24.17;15.85;;;22.10;70.60;;;;;;4956410;28;20146;-75
2022/08/16 03:04:20;;;;;;;25.47;15.83;;;22.10;70.40;;;;;;4956513;28;20054;-74
2022/08/16 03:06:47;;;;;;;22.70;16.58;;;22.00;70.40;;;;;;4956545;28;20051;-75
2022/08/16 03:09:21;;;;;;;24.77;17.23;;;22.00;70.20;;;;;;4940023;28;20421;-74
2022/08/16 03:11:53;;;;;;;20.27;15.60;;;22.00;70.00;;;;;;4956554;28;20051;-74
2022/08/16 03:14:20;;;;;;;21.83;15.68;;;22.00;69.80;;;;;;4972645;28;20051;-74
2022/08/16 03:16:48;;;;;;;21.07;14.77;;;22.00;69.70;;;;;;4956196;28;20058;-74
2022/08/16 03:19:15;;;;;;;19.65;14.65;;;21.90;69.60;;;;;;4956089;28;20058;-74
2022/08/16 03:21:46;;;;;;;18.15;13.82;;;21.90;69.50;;;;;;4962198;28;20063;-74
2022/08/16 03:24:13;;;;;;;19.35;13.73;;;21.90;70.00;;;;;;4936844;28;20437;-75
2022/08/16 03:26:40;;;;;;;18.63;14.52;;;21.90;70.30;;;;;;4936820;28;20142;-74
2022/08/16 03:29:07;;;;;;;19.30;15.70;;;21.90;70.50;;;;;;4952660;28;20131;-74
2022/08/16 03:31:34;;;;;;;18.35;13.95;;;21.80;70.50;;;;;;4921018;28;20051;-74
2022/08/16 03:34:01;;;;;;;13.23;10.23;;;21.80;70.40;;;;;;4954035;28;20079;-74
2022/08/16 03:36:28;;;;;;;12.98;9.63;;;21.70;70.40;;;;;;4920674;28;20059;-75
2022/08/16 03:38:59;;;;;;;14.20;9.65;;;21.70;70.20;;;;;;4936335;28;20147;-74
2022/08/16 03:41:30;;;;;;;14.43;9.77;;;21.70;70.10;;;;;;4936702;28;20052;-74
2022/08/16 03:43:59;;;;;;;14.82;11.20;;;21.70;69.90;;;;;;4936961;28;20059;-74
2022/08/16 03:46:33;;;;;;;16.60;12.18;;;21.70;69.80;;;;;;4920447;28;20493;-74
2022/08/16 03:49:00;;;;;;;15.45;12.10;;;21.70;69.80;;;;;;4920392;28;20159;-74
2022/08/16 03:51:27;;;;;;;15.23;12.25;;;21.60;69.90;;;;;;4936468;28;20067;-74
2022/08/16 03:54:02;;;;;;;18.47;14.00;;;21.60;69.80;;;;;;4936611;28;20051;-74
2022/08/16 03:56:32;;;;;;;20.13;15.05;;;21.50;70.00;;;;;;4941472;28;20059;-74
2022/08/16 03:59:00;;;;;;;17.00;13.40;;;21.50;69.90;;;;;;4955076;28;20051;-74
2022/08/16 04:01:34;;;;;;;11.38;8.40;;;21.50;69.90;;;;;;4955553;28;20074;-74
2022/08/16 04:04:01;;;;;;;7.75;6.13;;;21.50;69.80;;;;;;4955695;28;21018;-74
2022/08/16 04:06:30;;;;;;;10.23;8.30;;;21.50;70.00;;;;;;4951596;28;20055;-74
2022/08/16 04:08:57;;;;;;;13.18;9.43;;;21.40;70.00;;;;;;4935952;28;20151;-74
2022/08/16 04:11:25;;;;;;;11.35;9.73;;;21.40;70.00;;;;;;4936192;28;20082;-74
2022/08/16 04:13:54;;;;;;;13.50;9.43;;;21.40;70.10;;;;;;4919828;28;20071;-74
2022/08/16 04:16:22;;;;;;;13.30;10.20;;;21.40;70.00;;;;;;4920447;28;20059;-74
2022/08/16 04:18:49;;;;;;;10.80;8.83;;;21.30;69.80;;;;;;4919744;28;20514;-74
2022/08/16 04:21:17;;;;;;;13.07;8.98;;;21.30;69.90;;;;;;4920231;28;20047;-74
2022/08/16 04:23:45;;;;;;;15.32;10.20;;;21.30;70.00;;;;;;4920030;28;20550;-74
2022/08/16 04:26:12;;;;;;;9.75;7.50;;;21.20;69.80;;;;;;4951482;28;20095;-79
2022/08/16 04:28:41;;;;;;;12.32;8.98;;;21.20;69.80;;;;;;4920242;28;20139;-79
2022/08/16 04:31:11;;;;;;;12.63;9.10;;;21.10;70.30;;;;;;4921716;28;20056;-79
2022/08/16 04:33:41;;;;;;;15.52;11.63;;;21.10;70.70;;;;;;4920993;28;20127;-79
2022/08/16 04:36:10;;;;;;;13.82;11.15;;;21.10;71.00;;;;;;4919382;28;20083;-78
2022/08/16 04:38:37;;;;;;;19.77;12.65;;;21.10;71.10;;;;;;4919239;28;20062;-79
2022/08/16 04:41:05;;;;;;;19.92;14.82;;;21.00;71.30;;;;;;4935223;28;20055;-78
2022/08/16 04:43:37;;;;;;;16.80;12.70;;;21.00;71.40;;;;;;4951307;28;20054;-78
2022/08/16 04:46:05;;;;;;;19.08;12.98;;;21.00;71.40;;;;;;4935208;28;20104;-79
2022/08/16 04:48:38;;;;;;;16.63;12.65;;;21.00;71.50;;;;;;4918566;28;20083;-78
2022/08/16 04:51:11;;;;;;;18.38;12.57;;;21.00;71.60;;;;;;4935138;28;20063;-79
2022/08/16 04:53:44;;;;;;;16.67;12.27;;;20.90;71.80;;;;;;4919858;28;20103;-78
2022/08/16 04:56:11;;;;;;;18.80;14.13;;;20.90;71.70;;;;;;4916133;28;20056;-78
2022/08/16 04:58:38;;;;;;;18.55;13.18;;;20.90;71.90;;;;;;4948483;28;20449;-79
2022/08/16 05:01:06;;;;;;;16.75;12.55;;;20.90;72.10;;;;;;4933307;28;20071;-79
2022/08/16 05:03:33;;;;;;;18.63;13.50;;;20.80;72.20;;;;;;4934274;28;20056;-78
2022/08/16 05:06:04;;;;;;;19.13;12.63;;;20.80;72.20;;;;;;4932714;28;20051;-78
2022/08/16 05:08:32;;;;;;;19.20;12.40;;;20.80;72.20;;;;;;4916007;29;20534;-78
2022/08/16 05:11:06;;;;;;;20.35;16.02;;;20.80;72.50;;;;;;4924732;28;20047;-79
2022/08/16 05:13:35;;;;;;;22.88;15.80;;;20.80;72.70;;;;;;4934710;28;20054;-83
2022/08/16 05:16:08;;;;;;;22.67;15.38;;;20.80;72.90;;;;;;4945543;28;20612;-82
2022/08/16 05:18:36;;;;;;;20.85;14.90;;;20.70;73.00;;;;;;4934578;28;20060;-83
2022/08/16 05:21:04;;;;;;;20.30;15.63;;;20.70;73.30;;;;;;4933053;28;20074;-83
2022/08/16 05:23:31;;;;;;;21.75;15.95;;;20.60;73.40;;;;;;4719110;28;20574;-85
2022/08/16 05:25:59;;;;;;;22.30;16.52;;;20.60;73.60;;;;;;4887353;28;20150;-83
2022/08/16 05:28:26;;;;;;;20.52;15.88;;;20.60;73.70;;;;;;4918321;28;20087;-84
2022/08/16 05:30:55;;;;;;;21.83;15.80;;;20.50;73.80;;;;;;4933905;28;20067;-84
2022/08/16 05:33:27;;;;;;;22.37;15.70;;;20.50;73.90;;;;;;4934651;28;20493;-82
2022/08/16 05:35:55;;;;;;;24.25;15.93;;;20.50;74.10;;;;;;4919515;28;20075;-86
2022/08/16 05:38:30;;;;;;;21.92;16.08;;;20.50;74.20;;;;;;4935288;28;20139;-83
2022/08/16 05:41:01;;;;;;;21.10;15.63;;;20.50;74.30;;;;;;4935041;28;20065;-83
2022/08/16 05:43:35;;;;;;;23.95;16.60;;;20.50;74.50;;;;;;4919604;28;20052;-84
2022/08/16 05:46:03;;;;;;;22.23;16.10;;;20.40;74.70;;;;;;4919226;28;20085;-84
2022/08/16 05:48:31;;;;;;;21.08;15.52;;;20.50;74.80;;;;;;4951628;28;20534;-84
2022/08/16 05:51:03;;;;;;;22.77;16.02;;;20.50;75.00;;;;;;4918941;28;20583;-82
2022/08/16 05:53:31;;;;;;;23.30;15.75;;;20.50;75.00;;;;;;4918950;28;20059;-82
2022/08/16 05:56:06;;;;;;;20.75;15.75;;;20.50;75.10;;;;;;4935286;28;20509;-83
2022/08/16 05:58:36;;;;;;;20.87;15.97;;;20.50;75.10;;;;;;4935259;28;20055;-89
2022/08/16 06:01:03;;;;;;;22.95;15.95;;;20.50;75.10;;;;;;4935312;28;20059;-84
2022/08/16 06:03:36;;;;;;;21.33;15.80;;;20.50;75.20;;;;;;4919494;28;20052;-87
2022/08/16 06:06:09;;;;;;;22.13;16.30;;;20.50;75.20;;;;;;4935232;28;20055;-86
2022/08/16 06:08:38;;;;;;;22.58;16.63;;;20.60;75.20;;;;;;4934403;28;20047;-84
2022/08/16 06:11:06;;;;;;;21.27;14.80;;;20.60;75.20;;;;;;4921349;28;20171;-82
2022/08/16 06:13:36;;;;;;;23.02;15.85;;;20.60;75.20;;;;;;4906461;28;20064;-88
2022/08/16 06:16:03;;;;;;;24.42;15.95;;;20.60;75.20;;;;;;4937178;28;20051;-85
2022/08/16 06:18:30;;;;;;;20.77;14.05;;;20.60;75.30;;;;;;4921791;28;20044;-85
2022/08/16 06:20:59;;;;;;;21.27;14.73;;;20.60;75.20;;;;;;4921574;28;20056;-82
2022/08/16 06:23:27;;;;;;;20.33;14.10;;;20.60;75.10;;;;;;4922242;28;20059;-87
2022/08/16 06:25:57;;;;;;;19.42;14.07;;;20.60;75.10;;;;;;4922044;28;20058;-85
2022/08/16 06:28:40;;;;;;;18.95;14.40;;;20.60;75.10;;;;;;4938605;28;20082;-87
2022/08/16 06:31:15;;;;;;;22.75;15.13;;;20.60;75.00;;;;;;4937667;28;20590;-85
2022/08/16 06:33:46;;;;;;;20.75;14.85;;;20.60;75.00;;;;;;4938342;28;21027;-89
2022/08/16 06:36:17;;;;;;;19.67;13.63;;;20.60;75.00;;;;;;4923074;28;20087;-89
2022/08/16 06:38:53;;;;;;;22.20;16.13;;;20.60;74.90;;;;;;4938540;28;20048;-87
2022/08/16 06:41:25;;;;;;;20.83;15.23;;;20.60;75.00;;;;;;4938884;28;20695;-89
2022/08/16 06:43:56;;;;;;;21.83;16.27;;;20.60;75.00;;;;;;4937759;28;20099;-88
2022/08/16 06:46:32;;;;;;;20.30;15.60;;;20.60;75.20;;;;;;4938357;28;20060;-89
2022/08/16 06:49:05;;;;;;;23.07;15.60;;;20.60;75.20;;;;;;4938175;28;20060;-88
2022/08/16 06:51:34;;;;;;;22.35;15.77;;;20.70;75.30;;;;;;4947077;28;20055;-88
2022/08/16 06:54:01;;;;;;;21.80;16.13;;;20.70;75.40;;;;;;4941820;28;20059;-86
2022/08/16 06:56:28;;;;;;;20.80;15.75;;;20.70;75.40;;;;;;4957602;28;20592;-88
2022/08/16 06:59:05;;;;;;;23.25;17.05;;;20.70;75.30;;;;;;4955958;28;20051;-87
2022/08/16 07:01:36;;;;;;;21.23;17.10;;;20.80;75.30;;;;;;4941684;28;20047;-86
2022/08/16 07:04:04;;;;;;;23.05;17.30;;;20.80;75.30;;;;;;4941511;28;20059;-88
2022/08/16 07:06:35;;;;;;;29.67;17.65;;;20.80;75.30;;;;;;4957916;28;20497;-86
2022/08/16 07:09:09;;;;;;;23.73;16.25;;;20.80;75.20;;;;;;4941161;28;20547;-87
2022/08/16 07:11:36;;;;;;;23.55;17.20;;;20.90;75.10;;;;;;4941351;28;20154;-89
2022/08/16 07:14:03;;;;;;;21.77;16.73;;;20.90;75.20;;;;;;4941348;28;20548;-88
2022/08/16 07:16:35;;;;;;;24.15;18.20;;;20.90;75.00;;;;;;4957480;28;20075;-89
2022/08/16 07:19:01;;;;;;;24.85;17.02;;;21.00;75.20;;;;;;4941298;28;20556;-86
2022/08/16 07:21:31;;;;;;;29.15;18.55;;;21.10;75.10;;;;;;4956743;28;20059;-88
2022/08/16 07:24:00;;;;;;;25.25;18.13;;;21.10;75.00;;;;;;4957391;28;20055;-89
2022/08/16 07:26:27;;;;;;;24.93;18.13;;;21.10;75.20;;;;;;4943150;28;20052;-87
2022/08/16 07:28:57;;;;;;;26.73;18.60;;;21.20;75.00;;;;;;4938037;28;20056;-88
2022/08/16 07:31:24;;;;;;;26.00;18.63;;;21.30;74.70;;;;;;4922490;28;20055;-86
2022/08/16 07:33:51;;;;;;;24.42;16.63;;;21.30;74.70;;;;;;4938044;28;20114;-88
2022/08/16 07:36:21;;;;;;;27.23;19.35;;;21.40;74.60;;;;;;4921824;28;20143;-88
2022/08/16 07:38:49;;;;;;;27.90;18.67;;;21.50;74.60;;;;;;4922059;28;20064;-89
2022/08/16 07:41:18;;;;;;;27.30;19.90;;;21.50;74.50;;;;;;4921920;28;20051;-86
2022/08/16 07:43:49;;;;;;;31.27;19.38;;;21.50;74.30;;;;;;4921901;28;20047;-88
2022/08/16 07:46:18;;;;;;;27.85;19.58;;;21.60;74.10;;;;;;4937696;28;20855;-88
2022/08/16 07:48:45;;;;;;;26.33;19.88;;;21.70;73.90;;;;;;4921630;28;20058;-87
2022/08/16 07:51:12;;;;;;;24.00;18.63;;;21.70;73.80;;;;;;4921392;28;20580;-86
2022/08/16 07:53:43;;;;;;;22.63;17.42;;;21.80;73.60;;;;;;4921501;28;20052;-87
2022/08/16 07:56:11;;;;;;;23.23;17.77;;;21.90;73.20;;;;;;4937478;28;20130;-87
2022/08/16 07:58:41;;;;;;;27.08;16.42;;;21.90;72.90;;;;;;4921459;28;20083;-88
2022/08/16 08:01:12;;;;;;;23.80;18.17;;;22.00;72.50;;;;;;4931182;28;20930;-87
2022/08/16 08:03:52;;;;;;;23.63;18.30;;;22.10;72.90;;;;;;4940252;28;20178;-87
2022/08/16 08:06:26;;;;;;;24.00;18.15;;;22.10;72.30;;;;;;4940662;28;20530;-87
2022/08/16 08:08:58;;;;;;;24.33;17.60;;;22.20;71.60;;;;;;4940292;28;20552;-88
2022/08/16 08:11:26;;;;;;;23.25;18.15;;;22.20;71.70;;;;;;4940066;28;20055;-88
2022/08/16 08:13:58;;;;;;;22.83;18.23;;;22.30;71.60;;;;;;4956516;28;20056;-87
2022/08/16 08:16:26;;;;;;;25.03;17.67;;;22.40;70.70;;;;;;4956121;28;20134;-87
2022/08/16 08:18:54;;;;;;;21.77;16.23;;;22.50;70.40;;;;;;4956476;28;20063;-88
2022/08/16 08:21:23;;;;;;;20.23;15.38;;;22.50;70.20;;;;;;4939631;28;20051;-90
2022/08/16 08:23:50;;;;;;;22.63;15.73;;;22.60;69.50;;;;;;4942230;28;20056;-89
2022/08/16 08:26:19;;;;;;;22.77;16.75;;;22.60;68.40;;;;;;4937305;28;20074;-86
2022/08/16 08:28:46;;;;;;;21.97;16.13;;;22.70;67.40;;;;;;4937211;28;20052;-86
2022/08/16 08:31:14;;;;;;;18.73;12.93;;;22.70;67.40;;;;;;4921048;28;20529;-76
2022/08/16 08:33:41;;;;;;;19.38;14.85;;;22.80;67.30;;;;;;4934877;28;20085;-76
2022/08/16 08:36:16;;;;;;;19.13;13.93;;;22.90;67.60;;;;;;4951768;28;20058;-76
2022/08/16 08:38:44;;;;;;;20.40;16.30;;;23.00;67.80;;;;;;4934752;28;20522;-76
2022/08/16 08:41:10;;;;;;;20.20;14.80;;;23.00;66.90;;;;;;4950575;28;20102;-76
2022/08/16 08:43:38;;;;;;;18.73;14.48;;;23.10;66.80;;;;;;4950750;28;20111;-75
2022/08/16 08:46:05;;;;;;;17.98;14.13;;;23.20;66.20;;;;;;4950855;28;20063;-75
2022/08/16 08:48:35;;;;;;;21.23;14.15;;;23.20;65.90;;;;;;4949300;28;20044;-75
2022/08/16 08:51:04;;;;;;;18.83;15.07;;;23.30;65.50;;;;;;4934662;28;20131;-76
2022/08/16 08:53:32;;;;;;;19.47;14.37;;;23.30;65.20;;;;;;4950948;28;20135;-76
2022/08/16 08:55:59;;;;;;;22.45;15.35;;;23.40;64.10;;;;;;4934907;28;20084;-76
2022/08/16 08:58:26;;;;;;;23.50;16.20;;;23.40;64.20;;;;;;4950910;28;20543;-78
2022/08/16 09:01:10;;;;;;;21.08;15.90;;;23.50;64.30;;;;;;4933849;28;20047;-77
2022/08/16 09:03:40;;;;;;;19.52;14.43;;;23.50;64.00;;;;;;4916797;28;20111;-77
2022/08/16 09:06:08;;;;;;;19.47;12.37;;;23.60;63.80;;;;;;4917471;28;20519;-77
2022/08/16 09:08:39;;;;;;;20.13;14.75;;;23.60;63.80;;;;;;4951029;28;20059;-78
2022/08/16 09:11:10;;;;;;;18.85;14.20;;;23.60;64.30;;;;;;4933002;28;20055;-77
2022/08/16 09:13:39;;;;;;;16.75;13.13;;;23.70;63.00;;;;;;4921746;28;20127;-75
2022/08/16 09:16:08;;;;;;;19.33;15.55;;;23.80;62.70;;;;;;4933903;28;20536;-76
2022/08/16 09:18:38;;;;;;;17.30;12.73;;;23.80;62.90;;;;;;4932644;28;20043;-76
2022/08/16 09:21:06;;;;;;;14.85;12.07;;;23.90;61.30;;;;;;4948354;28;20059;-76
2022/08/16 09:23:34;;;;;;;16.58;11.40;;;23.90;61.60;;;;;;4935924;28;20052;-76
2022/08/16 09:26:04;;;;;;;10.52;6.32;;;23.90;61.30;;;;;;4951422;28;20079;-76
2022/08/16 09:28:31;;;;;;;13.55;9.93;;;24.00;60.40;;;;;;4952306;28;20048;-76
2022/08/16 09:31:13;;;;;;;12.27;10.00;;;24.00;60.80;;;;;;4952646;28;20054;-76
2022/08/16 09:33:42;;;;;;;13.10;10.07;;;24.00;59.50;;;;;;4942177;28;20063;-76
2022/08/16 09:36:10;;;;;;;13.80;11.18;;;24.00;59.60;;;;;;4949423;28;20110;-76
2022/08/16 09:38:38;;;;;;;13.88;11.50;;;24.10;60.20;;;;;;4934435;28;20044;-75
2022/08/16 09:41:09;;;;;;;13.75;10.27;;;24.20;60.10;;;;;;4934513;28;20134;-75
2022/08/16 09:43:36;;;;;;;15.67;10.30;;;24.20;59.10;;;;;;4933280;28;20055;-77
2022/08/16 09:46:07;;;;;;;15.55;10.80;;;24.20;58.50;;;;;;4955125;28;20134;-78
2022/08/16 09:48:35;;;;;;;13.00;10.40;;;24.30;58.50;;;;;;4955576;28;20515;-75
2022/08/16 09:51:04;;;;;;;12.68;9.23;;;24.30;59.00;;;;;;4936696;28;20111;-78
2022/08/16 09:53:31;;;;;;;11.88;9.18;;;24.40;58.60;;;;;;4937101;28;21019;-79
2022/08/16 09:55:58;;;;;;;11.80;8.33;;;24.40;58.60;;;;;;4954835;28;20044;-76
2022/08/16 09:58:27;;;;;;;13.63;9.82;;;24.40;57.60;;;;;;4938126;28;20143;-80
2022/08/16 10:00:54;;;;;;;12.93;9.88;;;24.50;57.90;;;;;;4949200;28;20060;-76
2022/08/16 10:03:22;;;;;;;11.50;9.60;;;24.50;57.00;;;;;;4937222;28;20051;-76
2022/08/16 10:05:50;;;;;;;10.70;8.05;;;24.60;58.00;;;;;;4937503;28;20516;-78
2022/08/16 10:08:18;;;;;;;10.73;7.30;;;24.60;57.60;;;;;;4937546;28;20054;-77
2022/08/16 10:13:10;;;;;;;9.70;8.05;;;24.70;57.00;;;;;;4954173;28;20083;-77
2022/08/16 10:13:35;;;;;;;13.48;8.85;;;24.70;56.60;;;;;;4936057;28;20067;-77
2022/08/16 10:16:02;;;;;;;10.98;8.95;;;24.80;57.00;;;;;;4936494;28;20063;-76
2022/08/16 10:18:31;;;;;;;8.63;6.80;;;24.90;57.00;;;;;;4937526;28;20465;-77
2022/08/16 10:20:58;;;;;;;8.15;5.75;;;25.00;56.30;;;;;;4920728;28;20442;-76
2022/08/16 10:23:28;;;;;;;9.65;5.82;;;25.00;53.60;;;;;;4952670;28;20051;-76
2022/08/16 10:25:55;;;;;;;6.47;4.90;;;25.00;53.50;;;;;;4935714;28;20640;-76
2022/08/16 10:28:23;;;;;;;6.88;5.30;;;25.00;53.10;;;;;;4954412;28;20054;-78
2022/08/16 10:30:50;;;;;;;7.53;5.30;;;25.10;52.50;;;;;;4954866;28;20056;-79
2022/08/16 10:33:30;;;;;;;6.43;5.00;;;25.20;52.40;;;;;;4948363;28;20252;-80
2022/08/16 10:35:57;;;;;;;5.60;4.32;;;25.30;52.60;;;;;;4949663;28;20150;-79
2022/08/16 10:38:24;;;;;;;7.22;5.40;;;25.30;52.30;;;;;;4937048;28;20516;-81
2022/08/16 10:40:53;;;;;;;5.88;5.00;;;25.40;53.20;;;;;;4937499;28;20652;-80
2022/08/16 10:43:20;;;;;;;6.63;4.70;;;25.40;52.10;;;;;;4926219;28;21049;-78
2022/08/16 10:45:49;;;;;;;6.85;4.63;;;25.50;51.30;;;;;;4941957;28;20764;-77
2022/08/16 10:48:16;;;;;;;6.97;4.43;;;25.60;50.30;;;;;;4946023;28;20138;-77
2022/08/16 10:50:43;;;;;;;6.45;4.38;;;25.60;50.00;;;;;;4935434;28;20131;-78
2022/08/16 10:53:10;;;;;;;6.78;4.93;;;25.60;50.70;;;;;;4937235;28;20119;-77
2022/08/16 10:55:39;;;;;;;6.03;4.33;;;25.70;51.00;;;;;;4935994;28;20055;-77
2022/08/16 10:58:10;;;;;;;6.18;3.70;;;25.80;50.30;;;;;;4953779;28;20275;-77
2022/08/16 11:00:40;;;;;;;6.07;4.13;;;25.80;50.10;;;;;;4953246;28;20058;-75
2022/08/16 11:03:08;;;;;;;7.05;4.35;;;26.00;50.00;;;;;;4933947;28;20133;-76
2022/08/16 11:05:38;;;;;;;7.80;4.72;;;26.00;48.60;;;;;;4934479;28;20059;-76
2022/08/16 11:08:07;;;;;;;8.17;5.13;;;26.00;49.20;;;;;;4954246;28;20064;-76
2022/08/16 11:14:36;;;;;;;7.40;5.00;;;26.20;48.40;;;;;;4934327;29;20506;-75
2022/08/16 11:17:05;;;;;;;6.15;4.72;;;26.20;48.70;;;;;;4935377;28;20050;-77
2022/08/16 11:19:32;;;;;;;7.05;4.90;;;26.30;48.80;;;;;;4934794;28;20062;-75
2022/08/16 11:22:00;;;;;;;6.47;4.30;;;26.40;48.70;;;;;;4935561;28;20063;-74
2022/08/16 11:24:27;;;;;;;6.57;4.18;;;26.40;48.20;;;;;;4935864;28;20255;-75
2022/08/16 11:26:54;;;;;;;6.72;4.25;;;26.50;47.20;;;;;;4936570;28;20167;-76
2022/08/16 11:29:21;;;;;;;7.18;4.60;;;26.50;48.00;;;;;;4953533;28;20052;-76
2022/08/16 11:31:50;;;;;;;7.32;4.97;;;26.60;48.20;;;;;;4936332;28;20051;-76
2022/08/16 11:34:17;;;;;;;6.57;4.43;;;26.60;46.90;;;;;;4954120;28;20063;-76
2022/08/16 11:36:44;;;;;;;6.97;5.28;;;26.70;47.20;;;;;;4953459;28;20259;-78
2022/08/16 11:39:11;;;;;;;6.35;4.78;;;26.70;47.70;;;;;;4932745;29;20067;-78
2022/08/16 11:41:37;;;;;;;6.47;4.63;;;26.80;47.20;;;;;;4917226;29;20055;-76
2022/08/16 11:44:05;;;;;;;7.90;4.40;;;26.90;47.20;;;;;;4934720;29;20058;-76
2022/08/16 11:46:34;;;;;;;5.40;4.17;;;26.90;47.50;;;;;;4917104;29;20123;-76
2022/08/16 11:49:02;;;;;;;5.47;3.85;;;27.00;46.90;;;;;;4917206;29;20287;-77
2022/08/16 11:51:30;;;;;;;6.30;4.40;;;27.00;46.70;;;;;;4932440;29;20056;-76
2022/08/16 11:53:57;;;;;;;5.60;4.10;;;27.00;46.40;;;;;;4916975;29;20059;-78
2022/08/16 11:56:24;;;;;;;6.30;4.25;;;27.10;46.40;;;;;;4917561;29;20062;-78
2022/08/16 11:58:51;;;;;;;6.37;4.50;;;27.10;46.20;;;;;;4933700;29;20136;-76
2022/08/16 12:01:18;;;;;;;6.80;4.80;;;27.20;47.00;;;;;;4931745;29;20783;-76
2022/08/16 12:03:45;;;;;;;5.80;4.40;;;27.20;47.10;;;;;;4934195;29;20056;-77
2022/08/16 12:06:17;;;;;;;7.78;4.75;;;27.30;47.40;;;;;;4933913;29;20536;-76
2022/08/16 12:08:45;;;;;;;9.35;5.32;;;27.40;47.70;;;;;;4916219;29;20123;-76
2022/08/16 12:11:13;;;;;;;6.33;4.53;;;27.40;46.70;;;;;;4916983;29;20064;-76
2022/08/16 12:13:41;;;;;;;7.03;4.38;;;27.50;46.50;;;;;;4917339;29;20271;-76
2022/08/16 12:16:09;;;;;;;6.97;4.75;;;27.50;45.40;;;;;;4932746;29;20143;-76
2022/08/16 12:18:37;;;;;;;6.45;4.38;;;27.50;45.60;;;;;;4933929;29;20059;-76
2022/08/16 12:21:04;;;;;;;6.07;4.63;;;27.50;46.00;;;;;;4916358;29;21095;-76
2022/08/16 12:23:33;;;;;;;5.90;5.10;;;27.50;45.90;;;;;;4943203;28;20486;-76
2022/08/16 12:26:00;;;;;;;7.30;4.80;;;27.60;45.30;;;;;;4953088;28;20306;-77
2022/08/16 12:28:27;;;;;;;7.70;5.72;;;27.70;45.50;;;;;;4944411;28;20139;-77
2022/08/16 12:30:54;;;;;;;8.25;4.93;;;27.70;46.00;;;;;;4951443;28;20628;-76
2022/08/16 12:33:21;;;;;;;5.75;4.80;;;27.80;46.50;;;;;;4952907;28;20059;-76
2022/08/16 12:35:48;;;;;;;6.23;5.30;;;27.80;45.80;;;;;;4952059;28;20647;-75
2022/08/16 12:38:17;;;;;;;7.90;5.40;;;27.80;45.90;;;;;;4932620;28;20703;-75
2022/08/16 12:40:49;;;;;;;6.57;5.18;;;27.90;45.70;;;;;;4951833;28;20056;-75
2022/08/16 12:43:20;;;;;;;8.73;5.22;;;27.90;45.70;;;;;;4930461;28;20047;-74